VXP1124 KJQF-TJSJ
Flight info
| Callsign | VXP1124 |
|---|---|
| Flight time | 3h 12m |
| Altitude | 37000 |
| Route | KWEEN5 PITRW Y436 EBEAR DCT DUUNK Y313 HOAGG DCT NUCAR Y355 PLING RTE7 SAALR |
| Aircraft | B738/M-SDE2E3FGHIRWXY/LB1 |
Departure
| Time | 2026-04-26 15:31 |
|---|---|
| Airport | Concord-Padgett Regional Airport (KJQF) |
Arrival
| Time | 2026-04-26 18:44 |
|---|---|
| Airport | Luis Munoz Marin International Airport (TJSJ) |
| Time | Latitude | Longitude | Altitude | Speed | Heading |
|---|---|---|---|---|---|
| 2026-04-26 14:58 | 35.37989 | -80.71333 | 666 ft | 0 kts | 327° |
| 2026-04-26 15:24 | 35.37988 | -80.71333 | 666 ft | 1 kts | 327° |
| 2026-04-26 15:24 | 35.37974 | -80.71319 | 664 ft | 3 kts | 294° |
| 2026-04-26 15:25 | 35.37973 | -80.71299 | 663 ft | 3 kts | 230° |
| 2026-04-26 15:25 | 35.37983 | -80.71287 | 665 ft | 3 kts | 210° |
| 2026-04-26 15:25 | 35.38002 | -80.71277 | 665 ft | 0 kts | 191° |
| 2026-04-26 15:27 | 35.37994 | -80.71279 | 665 ft | 5 kts | 191° |
| 2026-04-26 15:27 | 35.37978 | -80.71283 | 664 ft | 1 kts | 190° |
| 2026-04-26 15:28 | 35.37967 | -80.71282 | 664 ft | 1 kts | 171° |
| 2026-04-26 15:28 | 35.37966 | -80.71282 | 665 ft | 0 kts | 169° |
| 2026-04-26 15:28 | 35.37952 | -80.71266 | 665 ft | 4 kts | 121° |
| 2026-04-26 15:28 | 35.37929 | -80.71246 | 666 ft | 4 kts | 172° |
| 2026-04-26 15:29 | 35.37887 | -80.71251 | 666 ft | 11 kts | 190° |
| 2026-04-26 15:29 | 35.37814 | -80.71259 | 665 ft | 8 kts | 156° |
| 2026-04-26 15:29 | 35.37803 | -80.71242 | 665 ft | 0 kts | 112° |
| 2026-04-26 15:30 | 35.37793 | -80.71186 | 667 ft | 6 kts | 96° |
| 2026-04-26 15:30 | 35.37819 | -80.71131 | 667 ft | 8 kts | 25° |
| 2026-04-26 15:30 | 35.37853 | -80.71121 | 666 ft | 24 kts | 11° |
| 2026-04-26 15:31 | 35.38279 | -80.71025 | 667 ft | 99 kts | 10° |
| 2026-04-26 15:31 | 35.40398 | -80.70556 | 1097 ft | 190 kts | 9° |
| 2026-04-26 15:31 | 35.41754 | -80.70314 | 1942 ft | 202 kts | 11° |
| 2026-04-26 15:32 | 35.44096 | -80.69731 | 3580 ft | 205 kts | 20° |
| 2026-04-26 15:32 | 35.45720 | -80.68469 | 4455 ft | 221 kts | 47° |
| 2026-04-26 15:32 | 35.46536 | -80.66745 | 4699 ft | 253 kts | 75° |
| 2026-04-26 15:33 | 35.46380 | -80.64551 | 5242 ft | 268 kts | 112° |
| 2026-04-26 15:33 | 35.45235 | -80.62737 | 5838 ft | 277 kts | 143° |
| 2026-04-26 15:33 | 35.43469 | -80.61804 | 6511 ft | 282 kts | 168° |
| 2026-04-26 15:33 | 35.41504 | -80.61724 | 7129 ft | 286 kts | 187° |
| 2026-04-26 15:34 | 35.39558 | -80.62229 | 7746 ft | 291 kts | 195° |
| 2026-04-26 15:34 | 35.37614 | -80.62894 | 8533 ft | 291 kts | 196° |
| 2026-04-26 15:34 | 35.35661 | -80.63584 | 9204 ft | 294 kts | 196° |
| 2026-04-26 15:34 | 35.33675 | -80.64271 | 9874 ft | 298 kts | 196° |
| 2026-04-26 15:35 | 35.31665 | -80.64945 | 10451 ft | 305 kts | 195° |
| 2026-04-26 15:35 | 35.29549 | -80.65637 | 10607 ft | 326 kts | 195° |
| 2026-04-26 15:35 | 35.27285 | -80.66362 | 10793 ft | 346 kts | 195° |
| 2026-04-26 15:35 | 35.24887 | -80.67120 | 10949 ft | 366 kts | 195° |
| 2026-04-26 15:36 | 35.22368 | -80.67905 | 11194 ft | 381 kts | 195° |
| 2026-04-26 15:36 | 35.19776 | -80.68706 | 11674 ft | 386 kts | 195° |
| 2026-04-26 15:36 | 35.17154 | -80.69514 | 12212 ft | 391 kts | 195° |
| 2026-04-26 15:36 | 35.14545 | -80.70315 | 12850 ft | 392 kts | 195° |
| 2026-04-26 15:37 | 35.11901 | -80.71123 | 13563 ft | 393 kts | 195° |
| 2026-04-26 15:37 | 35.09230 | -80.71941 | 14087 ft | 397 kts | 195° |
| 2026-04-26 15:37 | 35.06543 | -80.72764 | 14610 ft | 400 kts | 195° |
| 2026-04-26 15:37 | 35.03798 | -80.73604 | 15171 ft | 402 kts | 196° |
| 2026-04-26 15:38 | 35.01114 | -80.74425 | 15707 ft | 404 kts | 196° |
| 2026-04-26 15:38 | 34.98379 | -80.75259 | 16252 ft | 406 kts | 196° |
| 2026-04-26 15:38 | 34.95628 | -80.76100 | 16754 ft | 409 kts | 197° |
| 2026-04-26 15:38 | 34.92856 | -80.76946 | 17268 ft | 412 kts | 197° |
| 2026-04-26 15:39 | 34.90068 | -80.77797 | 17766 ft | 415 kts | 197° |
| 2026-04-26 15:39 | 34.87294 | -80.78644 | 18224 ft | 418 kts | 197° |
| 2026-04-26 15:39 | 34.84471 | -80.79504 | 18643 ft | 420 kts | 197° |
| 2026-04-26 15:39 | 34.82546 | -80.80091 | 18955 ft | 422 kts | 198° |
| 2026-04-26 15:40 | 34.78771 | -80.81239 | 19590 ft | 424 kts | 198° |
| 2026-04-26 15:40 | 34.75904 | -80.82111 | 20039 ft | 426 kts | 198° |
| 2026-04-26 15:40 | 34.73017 | -80.82988 | 20535 ft | 429 kts | 198° |
| 2026-04-26 15:40 | 34.70110 | -80.83862 | 20979 ft | 431 kts | 197° |
| 2026-04-26 15:41 | 34.67120 | -80.84397 | 21398 ft | 439 kts | 187° |
| 2026-04-26 15:41 | 34.64039 | -80.84311 | 21763 ft | 446 kts | 180° |
| 2026-04-26 15:41 | 34.60926 | -80.83998 | 22072 ft | 451 kts | 179° |
| 2026-04-26 15:41 | 34.57795 | -80.83664 | 22423 ft | 453 kts | 180° |
| 2026-04-26 15:42 | 34.54647 | -80.83335 | 22808 ft | 455 kts | 180° |
| 2026-04-26 15:42 | 34.51483 | -80.83021 | 23184 ft | 457 kts | 180° |
| 2026-04-26 15:42 | 34.48350 | -80.82724 | 23541 ft | 459 kts | 180° |
| 2026-04-26 15:42 | 34.45156 | -80.82431 | 23844 ft | 461 kts | 181° |
| 2026-04-26 15:43 | 34.41947 | -80.82141 | 24171 ft | 463 kts | 181° |
| 2026-04-26 15:43 | 34.38734 | -80.81851 | 24478 ft | 465 kts | 180° |
| 2026-04-26 15:43 | 34.32264 | -80.81267 | 25111 ft | 467 kts | 180° |
| 2026-04-26 15:44 | 34.29014 | -80.80973 | 25413 ft | 469 kts | 180° |
| 2026-04-26 15:44 | 34.22473 | -80.80382 | 25961 ft | 473 kts | 180° |
| 2026-04-26 15:44 | 34.19238 | -80.80093 | 26212 ft | 474 kts | 180° |
| 2026-04-26 15:45 | 34.12630 | -80.79517 | 26690 ft | 478 kts | 180° |
| 2026-04-26 15:45 | 34.09304 | -80.79230 | 26932 ft | 479 kts | 181° |
| 2026-04-26 15:46 | 34.02654 | -80.78653 | 27614 ft | 478 kts | 181° |
| 2026-04-26 15:46 | 33.99345 | -80.78365 | 28038 ft | 476 kts | 181° |
| 2026-04-26 15:46 | 33.96045 | -80.78078 | 28475 ft | 474 kts | 181° |
| 2026-04-26 15:46 | 33.93863 | -80.77888 | 28752 ft | 474 kts | 181° |
| 2026-04-26 15:47 | 33.89513 | -80.77512 | 29247 ft | 473 kts | 181° |
| 2026-04-26 15:47 | 33.82946 | -80.76945 | 29781 ft | 476 kts | 181° |
| 2026-04-26 15:47 | 33.79633 | -80.76661 | 29984 ft | 477 kts | 181° |
| 2026-04-26 15:48 | 33.76324 | -80.76375 | 30307 ft | 477 kts | 181° |
| 2026-04-26 15:48 | 33.73020 | -80.76089 | 30590 ft | 476 kts | 181° |
| 2026-04-26 15:48 | 33.69710 | -80.75803 | 30817 ft | 478 kts | 181° |
| 2026-04-26 15:48 | 33.66394 | -80.75518 | 31003 ft | 479 kts | 181° |
| 2026-04-26 15:49 | 33.63067 | -80.75232 | 31233 ft | 480 kts | 181° |
| 2026-04-26 15:49 | 33.59734 | -80.74945 | 31425 ft | 480 kts | 182° |
| 2026-04-26 15:49 | 33.56434 | -80.74662 | 31524 ft | 484 kts | 181° |
| 2026-04-26 15:49 | 33.53082 | -80.74032 | 31633 ft | 496 kts | 167° |
| 2026-04-26 15:50 | 33.49926 | -80.72280 | 31873 ft | 506 kts | 149° |
| 2026-04-26 15:50 | 33.47236 | -80.69538 | 32136 ft | 512 kts | 131° |
| 2026-04-26 15:50 | 33.45056 | -80.66164 | 32360 ft | 513 kts | 128° |
| 2026-04-26 15:50 | 33.42923 | -80.62736 | 32478 ft | 515 kts | 128° |
| 2026-04-26 15:51 | 33.40768 | -80.59291 | 32615 ft | 517 kts | 128° |
| 2026-04-26 15:51 | 33.38597 | -80.55864 | 32842 ft | 517 kts | 128° |
| 2026-04-26 15:51 | 33.36407 | -80.52450 | 33114 ft | 515 kts | 129° |
| 2026-04-26 15:51 | 33.34253 | -80.49124 | 33497 ft | 512 kts | 129° |
| 2026-04-26 15:52 | 33.32069 | -80.45770 | 33694 ft | 512 kts | 129° |
| 2026-04-26 15:52 | 33.29869 | -80.42403 | 33850 ft | 515 kts | 129° |
| 2026-04-26 15:52 | 33.27664 | -80.39034 | 34056 ft | 515 kts | 129° |
| 2026-04-26 15:52 | 33.26205 | -80.36804 | 34207 ft | 514 kts | 129° |
| 2026-04-26 15:53 | 33.23263 | -80.32309 | 34513 ft | 512 kts | 129° |
| 2026-04-26 15:53 | 33.21068 | -80.28956 | 34688 ft | 512 kts | 129° |
| 2026-04-26 15:53 | 33.18877 | -80.25612 | 34831 ft | 512 kts | 129° |
| 2026-04-26 15:53 | 33.16681 | -80.22263 | 34988 ft | 512 kts | 129° |
| 2026-04-26 15:54 | 33.14483 | -80.18913 | 35158 ft | 512 kts | 129° |
| 2026-04-26 15:54 | 33.12290 | -80.15574 | 35358 ft | 510 kts | 129° |
| 2026-04-26 15:54 | 33.10113 | -80.12260 | 35709 ft | 505 kts | 129° |
| 2026-04-26 15:54 | 33.07981 | -80.09020 | 35934 ft | 503 kts | 129° |
| 2026-04-26 15:55 | 33.05819 | -80.05737 | 36074 ft | 503 kts | 129° |
| 2026-04-26 15:55 | 33.01485 | -79.99166 | 36218 ft | 506 kts | 129° |
| 2026-04-26 15:55 | 32.99309 | -79.95870 | 36363 ft | 507 kts | 129° |
| 2026-04-26 15:56 | 32.97134 | -79.92579 | 36568 ft | 506 kts | 129° |
| 2026-04-26 15:56 | 32.94964 | -79.89298 | 36760 ft | 504 kts | 129° |
| 2026-04-26 15:56 | 32.92791 | -79.86017 | 36891 ft | 504 kts | 129° |
| 2026-04-26 15:57 | 32.88443 | -79.79458 | 36953 ft | 506 kts | 129° |
| 2026-04-26 15:57 | 32.84119 | -79.72946 | 36951 ft | 503 kts | 129° |
| 2026-04-26 15:58 | 32.79794 | -79.66443 | 36932 ft | 500 kts | 129° |
| 2026-04-26 15:58 | 32.75504 | -79.59995 | 36936 ft | 496 kts | 128° |
| 2026-04-26 15:59 | 32.72140 | -79.52881 | 36945 ft | 493 kts | 109° |
| 2026-04-26 15:59 | 32.69799 | -79.45250 | 36935 ft | 491 kts | 108° |
| 2026-04-26 16:00 | 32.67473 | -79.37679 | 36952 ft | 492 kts | 109° |
| 2026-04-26 16:00 | 32.65072 | -79.30062 | 36940 ft | 493 kts | 110° |
| 2026-04-26 16:01 | 32.62647 | -79.22459 | 36953 ft | 494 kts | 110° |
| 2026-04-26 16:01 | 32.60204 | -79.14825 | 36945 ft | 495 kts | 110° |
| 2026-04-26 16:02 | 32.57758 | -79.07187 | 36954 ft | 496 kts | 110° |
| 2026-04-26 16:02 | 32.55319 | -78.99586 | 36955 ft | 497 kts | 110° |
| 2026-04-26 16:03 | 32.52857 | -78.91931 | 36939 ft | 498 kts | 110° |
| 2026-04-26 16:03 | 32.50386 | -78.84266 | 36943 ft | 498 kts | 110° |
| 2026-04-26 16:04 | 32.47916 | -78.76616 | 36944 ft | 497 kts | 110° |
| 2026-04-26 16:04 | 32.45446 | -78.68969 | 36941 ft | 497 kts | 110° |
| 2026-04-26 16:05 | 32.43006 | -78.61435 | 36921 ft | 490 kts | 110° |
| 2026-04-26 16:05 | 32.40585 | -78.53976 | 36933 ft | 484 kts | 110° |
| 2026-04-26 16:06 | 32.38168 | -78.46546 | 36942 ft | 483 kts | 110° |
| 2026-04-26 16:06 | 32.35749 | -78.39124 | 36942 ft | 483 kts | 110° |
| 2026-04-26 16:07 | 32.33347 | -78.31766 | 36946 ft | 483 kts | 110° |
| 2026-04-26 16:07 | 32.30931 | -78.24350 | 36937 ft | 483 kts | 110° |
| 2026-04-26 16:08 | 32.27814 | -78.17406 | 36937 ft | 479 kts | 137° |
| 2026-04-26 16:08 | 32.26142 | -78.15678 | 36966 ft | 476 kts | 148° |
| 2026-04-26 16:08 | 32.22225 | -78.13444 | 36970 ft | 467 kts | 168° |
| 2026-04-26 16:08 | 32.19056 | -78.12770 | 36922 ft | 462 kts | 182° |
| 2026-04-26 16:09 | 32.15890 | -78.13038 | 36979 ft | 453 kts | 194° |
| 2026-04-26 16:09 | 32.09728 | -78.14457 | 36956 ft | 455 kts | 196° |
| 2026-04-26 16:10 | 32.03516 | -78.15973 | 36932 ft | 457 kts | 195° |
| 2026-04-26 16:10 | 31.97254 | -78.17431 | 36938 ft | 460 kts | 194° |
| 2026-04-26 16:11 | 31.90955 | -78.18855 | 36954 ft | 462 kts | 194° |
| 2026-04-26 16:11 | 31.84616 | -78.20277 | 36954 ft | 465 kts | 194° |
| 2026-04-26 16:12 | 31.78299 | -78.21694 | 36936 ft | 466 kts | 194° |
| 2026-04-26 16:12 | 31.68732 | -78.23839 | 36958 ft | 467 kts | 194° |
| 2026-04-26 16:13 | 31.62336 | -78.25272 | 36954 ft | 468 kts | 194° |
| 2026-04-26 16:13 | 31.55945 | -78.26701 | 36953 ft | 468 kts | 194° |
| 2026-04-26 16:14 | 31.49595 | -78.28120 | 36941 ft | 467 kts | 194° |
| 2026-04-26 16:15 | 31.40175 | -78.30820 | 36965 ft | 463 kts | 200° |
| 2026-04-26 16:15 | 31.34005 | -78.32976 | 36954 ft | 462 kts | 200° |
| 2026-04-26 16:16 | 31.24744 | -78.36145 | 36947 ft | 462 kts | 200° |
| 2026-04-26 16:16 | 31.18614 | -78.38196 | 36959 ft | 461 kts | 200° |
| 2026-04-26 16:17 | 31.12445 | -78.40248 | 36955 ft | 461 kts | 200° |
| 2026-04-26 16:17 | 31.06278 | -78.42299 | 36959 ft | 461 kts | 200° |
| 2026-04-26 16:18 | 30.97063 | -78.45360 | 36950 ft | 460 kts | 200° |
| 2026-04-26 16:19 | 30.87824 | -78.48425 | 36960 ft | 461 kts | 200° |
| 2026-04-26 16:20 | 30.78576 | -78.51486 | 36964 ft | 461 kts | 200° |
| 2026-04-26 16:20 | 30.69319 | -78.54543 | 36963 ft | 461 kts | 200° |
| 2026-04-26 16:21 | 30.63186 | -78.56565 | 36972 ft | 461 kts | 200° |
| 2026-04-26 16:21 | 30.57020 | -78.58596 | 36979 ft | 461 kts | 200° |
| 2026-04-26 16:22 | 30.50856 | -78.60623 | 36982 ft | 460 kts | 200° |
| 2026-04-26 16:22 | 30.44692 | -78.62647 | 36978 ft | 459 kts | 199° |
| 2026-04-26 16:23 | 30.38635 | -78.64632 | 36966 ft | 451 kts | 199° |
| 2026-04-26 16:23 | 30.32623 | -78.66602 | 36972 ft | 448 kts | 199° |
| 2026-04-26 16:24 | 30.26644 | -78.68561 | 36949 ft | 447 kts | 200° |
| 2026-04-26 16:24 | 30.20623 | -78.70531 | 36979 ft | 451 kts | 200° |
| 2026-04-26 16:25 | 30.14560 | -78.72511 | 36990 ft | 455 kts | 200° |
| 2026-04-26 16:25 | 30.08438 | -78.74514 | 36992 ft | 459 kts | 200° |
| 2026-04-26 16:26 | 30.03306 | -78.76190 | 36987 ft | 463 kts | 200° |
| 2026-04-26 16:26 | 29.96073 | -78.78550 | 36988 ft | 467 kts | 200° |
| 2026-04-26 16:27 | 29.89802 | -78.80592 | 36977 ft | 470 kts | 200° |
| 2026-04-26 16:27 | 29.83536 | -78.82629 | 36968 ft | 465 kts | 199° |
| 2026-04-26 16:28 | 29.80343 | -78.83254 | 36958 ft | 469 kts | 182° |
| 2026-04-26 16:28 | 29.77147 | -78.82799 | 37004 ft | 473 kts | 166° |
| 2026-04-26 16:28 | 29.74098 | -78.81350 | 36972 ft | 478 kts | 149° |
| 2026-04-26 16:28 | 29.71413 | -78.79345 | 37021 ft | 477 kts | 148° |
| 2026-04-26 16:29 | 29.65873 | -78.75095 | 36997 ft | 479 kts | 147° |
| 2026-04-26 16:29 | 29.60330 | -78.70900 | 36984 ft | 481 kts | 148° |
| 2026-04-26 16:30 | 29.54713 | -78.66718 | 37011 ft | 482 kts | 149° |
| 2026-04-26 16:30 | 29.49064 | -78.62544 | 36992 ft | 483 kts | 149° |
| 2026-04-26 16:31 | 29.43419 | -78.58381 | 36990 ft | 482 kts | 149° |
| 2026-04-26 16:31 | 29.37819 | -78.54253 | 36987 ft | 481 kts | 149° |
| 2026-04-26 16:32 | 29.33110 | -78.50785 | 36986 ft | 480 kts | 149° |
| 2026-04-26 16:32 | 29.26592 | -78.45990 | 36987 ft | 478 kts | 149° |
| 2026-04-26 16:33 | 29.21012 | -78.41892 | 36992 ft | 476 kts | 149° |
| 2026-04-26 16:33 | 29.15440 | -78.37804 | 36998 ft | 475 kts | 149° |
| 2026-04-26 16:34 | 29.09921 | -78.33761 | 36992 ft | 474 kts | 149° |
| 2026-04-26 16:34 | 29.04373 | -78.29702 | 36999 ft | 474 kts | 149° |
| 2026-04-26 16:35 | 28.98821 | -78.25646 | 36995 ft | 473 kts | 149° |
| 2026-04-26 16:35 | 28.93268 | -78.21593 | 37000 ft | 474 kts | 149° |
| 2026-04-26 16:36 | 28.87710 | -78.17543 | 37005 ft | 475 kts | 149° |
| 2026-04-26 16:36 | 28.82174 | -78.13514 | 37000 ft | 476 kts | 149° |
| 2026-04-26 16:37 | 28.76585 | -78.09451 | 36999 ft | 477 kts | 149° |
| 2026-04-26 16:37 | 28.71935 | -78.06074 | 36999 ft | 478 kts | 149° |
| 2026-04-26 16:38 | 28.65374 | -78.01316 | 36995 ft | 479 kts | 149° |
| 2026-04-26 16:38 | 28.59748 | -77.97242 | 37002 ft | 480 kts | 149° |
| 2026-04-26 16:39 | 28.54144 | -77.93189 | 37013 ft | 481 kts | 150° |
| 2026-04-26 16:39 | 28.48487 | -77.89103 | 37003 ft | 481 kts | 150° |
| 2026-04-26 16:40 | 28.42837 | -77.85027 | 36997 ft | 481 kts | 150° |
| 2026-04-26 16:40 | 28.37191 | -77.80958 | 36993 ft | 479 kts | 150° |
| 2026-04-26 16:41 | 28.31566 | -77.76911 | 36995 ft | 478 kts | 150° |
| 2026-04-26 16:41 | 28.25988 | -77.72903 | 37001 ft | 477 kts | 150° |
| 2026-04-26 16:42 | 28.20382 | -77.68879 | 37002 ft | 477 kts | 150° |
| 2026-04-26 16:42 | 28.14779 | -77.64862 | 37003 ft | 476 kts | 149° |
| 2026-04-26 16:43 | 28.09672 | -77.60079 | 36997 ft | 479 kts | 135° |
| 2026-04-26 16:43 | 28.05138 | -77.54630 | 36997 ft | 479 kts | 135° |
| 2026-04-26 16:44 | 28.00566 | -77.49129 | 37006 ft | 479 kts | 135° |
| 2026-04-26 16:44 | 27.95962 | -77.43666 | 37007 ft | 480 kts | 136° |
| 2026-04-26 16:45 | 27.91334 | -77.38219 | 37007 ft | 480 kts | 136° |
| 2026-04-26 16:45 | 27.86696 | -77.32774 | 37007 ft | 481 kts | 136° |
| 2026-04-26 16:46 | 27.82081 | -77.27361 | 37009 ft | 482 kts | 136° |
| 2026-04-26 16:46 | 27.77432 | -77.21913 | 37015 ft | 482 kts | 136° |
| 2026-04-26 16:47 | 27.72780 | -77.16467 | 36997 ft | 481 kts | 136° |
| 2026-04-26 16:47 | 27.68136 | -77.11037 | 37003 ft | 480 kts | 136° |
| 2026-04-26 16:48 | 27.63542 | -77.05675 | 36999 ft | 478 kts | 136° |
| 2026-04-26 16:48 | 27.58930 | -77.00297 | 37001 ft | 476 kts | 136° |
| 2026-04-26 16:49 | 27.54339 | -76.94951 | 37001 ft | 474 kts | 136° |
| 2026-04-26 16:49 | 27.49758 | -76.89624 | 37005 ft | 473 kts | 136° |
| 2026-04-26 16:50 | 27.45186 | -76.84314 | 37016 ft | 472 kts | 137° |
| 2026-04-26 16:50 | 27.40613 | -76.79011 | 37004 ft | 472 kts | 136° |
| 2026-04-26 16:51 | 27.36056 | -76.73731 | 37016 ft | 476 kts | 136° |
| 2026-04-26 16:51 | 27.31420 | -76.68368 | 37015 ft | 480 kts | 136° |
| 2026-04-26 16:52 | 27.28296 | -76.64757 | 37013 ft | 483 kts | 136° |
| 2026-04-26 16:52 | 27.22831 | -76.58447 | 37012 ft | 486 kts | 136° |
| 2026-04-26 16:53 | 27.18098 | -76.52990 | 37007 ft | 488 kts | 136° |
| 2026-04-26 16:53 | 27.13385 | -76.47560 | 36991 ft | 479 kts | 137° |
| 2026-04-26 16:54 | 27.08800 | -76.42285 | 37000 ft | 469 kts | 137° |
| 2026-04-26 16:54 | 27.04253 | -76.37047 | 37009 ft | 468 kts | 137° |
| 2026-04-26 16:55 | 26.99762 | -76.31773 | 37011 ft | 468 kts | 136° |
| 2026-04-26 16:55 | 26.95305 | -76.26521 | 37014 ft | 469 kts | 136° |
| 2026-04-26 16:56 | 26.88525 | -76.18563 | 37018 ft | 472 kts | 136° |
| 2026-04-26 16:57 | 26.83969 | -76.13232 | 37022 ft | 474 kts | 137° |
| 2026-04-26 16:57 | 26.77099 | -76.05205 | 36994 ft | 477 kts | 137° |
| 2026-04-26 16:58 | 26.73278 | -76.00747 | 37006 ft | 478 kts | 137° |
| 2026-04-26 16:59 | 26.65630 | -75.91839 | 37006 ft | 477 kts | 137° |
| 2026-04-26 17:00 | 26.56450 | -75.81169 | 37003 ft | 475 kts | 137° |
| 2026-04-26 17:00 | 26.49591 | -75.73215 | 37004 ft | 472 kts | 137° |
| 2026-04-26 17:01 | 26.45036 | -75.67940 | 37002 ft | 471 kts | 137° |
| 2026-04-26 17:01 | 26.40530 | -75.62728 | 36999 ft | 469 kts | 137° |
| 2026-04-26 17:02 | 26.36010 | -75.57508 | 37002 ft | 467 kts | 138° |
| 2026-04-26 17:02 | 26.31502 | -75.52308 | 37004 ft | 466 kts | 137° |
| 2026-04-26 17:03 | 26.26984 | -75.47102 | 37010 ft | 466 kts | 137° |
| 2026-04-26 17:03 | 26.22470 | -75.41908 | 37006 ft | 467 kts | 138° |
| 2026-04-26 17:04 | 26.17951 | -75.36712 | 37012 ft | 468 kts | 138° |
| 2026-04-26 17:04 | 26.13449 | -75.31544 | 37010 ft | 469 kts | 138° |
| 2026-04-26 17:05 | 26.08909 | -75.26336 | 36989 ft | 469 kts | 138° |
| 2026-04-26 17:05 | 26.04358 | -75.21123 | 37003 ft | 470 kts | 138° |
| 2026-04-26 17:06 | 25.99796 | -75.15904 | 37011 ft | 471 kts | 138° |
| 2026-04-26 17:06 | 25.95219 | -75.10674 | 37007 ft | 472 kts | 138° |
| 2026-04-26 17:07 | 25.90635 | -75.05442 | 37000 ft | 473 kts | 138° |
| 2026-04-26 17:07 | 25.86046 | -75.00209 | 37008 ft | 473 kts | 138° |
| 2026-04-26 17:08 | 25.81449 | -74.94974 | 37004 ft | 473 kts | 138° |
| 2026-04-26 17:08 | 25.76887 | -74.89785 | 37001 ft | 473 kts | 138° |
| 2026-04-26 17:09 | 25.73040 | -74.85414 | 37007 ft | 472 kts | 139° |
| 2026-04-26 17:09 | 25.67714 | -74.79369 | 37008 ft | 471 kts | 139° |
| 2026-04-26 17:10 | 25.63137 | -74.74182 | 36994 ft | 471 kts | 139° |
| 2026-04-26 17:10 | 25.58556 | -74.68996 | 37008 ft | 470 kts | 139° |
| 2026-04-26 17:11 | 25.53978 | -74.63820 | 37001 ft | 470 kts | 139° |
| 2026-04-26 17:11 | 25.49403 | -74.58653 | 37003 ft | 470 kts | 139° |
| 2026-04-26 17:12 | 25.42539 | -74.50911 | 36985 ft | 470 kts | 139° |
| 2026-04-26 17:13 | 25.35692 | -74.43204 | 37002 ft | 471 kts | 139° |
| 2026-04-26 17:14 | 25.28793 | -74.35450 | 37001 ft | 472 kts | 139° |
| 2026-04-26 17:14 | 25.21860 | -74.27671 | 37001 ft | 474 kts | 139° |
| 2026-04-26 17:15 | 25.14903 | -74.19878 | 37001 ft | 476 kts | 139° |
| 2026-04-26 17:16 | 25.10250 | -74.14674 | 37001 ft | 476 kts | 139° |
| 2026-04-26 17:16 | 25.05596 | -74.09474 | 36999 ft | 476 kts | 139° |
| 2026-04-26 17:17 | 25.00970 | -74.04312 | 36987 ft | 477 kts | 139° |
| 2026-04-26 17:17 | 24.96300 | -73.99107 | 36995 ft | 477 kts | 140° |
| 2026-04-26 17:18 | 24.91626 | -73.93904 | 36997 ft | 478 kts | 139° |
| 2026-04-26 17:18 | 24.86944 | -73.88698 | 36997 ft | 478 kts | 140° |
| 2026-04-26 17:19 | 24.79915 | -73.80891 | 36996 ft | 479 kts | 140° |
| 2026-04-26 17:19 | 24.75255 | -73.75723 | 36994 ft | 479 kts | 140° |
| 2026-04-26 17:20 | 24.71328 | -73.71372 | 36979 ft | 478 kts | 140° |
| 2026-04-26 17:20 | 24.65871 | -73.65334 | 36991 ft | 479 kts | 140° |
| 2026-04-26 17:21 | 24.61170 | -73.60136 | 36997 ft | 480 kts | 140° |
| 2026-04-26 17:21 | 24.56551 | -73.54825 | 36987 ft | 485 kts | 133° |
| 2026-04-26 17:22 | 24.52936 | -73.48538 | 36995 ft | 492 kts | 124° |
| 2026-04-26 17:22 | 24.49516 | -73.42026 | 37001 ft | 493 kts | 124° |
| 2026-04-26 17:23 | 24.46053 | -73.35518 | 36993 ft | 494 kts | 125° |
| 2026-04-26 17:23 | 24.42549 | -73.29030 | 36985 ft | 494 kts | 125° |
| 2026-04-26 17:24 | 24.39027 | -73.22547 | 36990 ft | 495 kts | 125° |
| 2026-04-26 17:24 | 24.35500 | -73.16062 | 36987 ft | 495 kts | 126° |
| 2026-04-26 17:25 | 24.31971 | -73.09579 | 36989 ft | 496 kts | 126° |
| 2026-04-26 17:25 | 24.28429 | -73.03078 | 37000 ft | 497 kts | 126° |
| 2026-04-26 17:26 | 24.24909 | -72.96625 | 36992 ft | 498 kts | 126° |
| 2026-04-26 17:26 | 24.21348 | -72.90107 | 36992 ft | 498 kts | 126° |
| 2026-04-26 17:27 | 24.17784 | -72.83591 | 36998 ft | 499 kts | 126° |
| 2026-04-26 17:27 | 24.14216 | -72.77078 | 36993 ft | 499 kts | 126° |
| 2026-04-26 17:28 | 24.10638 | -72.70552 | 36984 ft | 500 kts | 126° |
| 2026-04-26 17:28 | 24.07061 | -72.64041 | 36993 ft | 499 kts | 126° |
| 2026-04-26 17:29 | 24.04086 | -72.58629 | 36978 ft | 499 kts | 126° |
| 2026-04-26 17:29 | 23.99925 | -72.51070 | 36987 ft | 499 kts | 126° |
| 2026-04-26 17:30 | 23.96344 | -72.44575 | 36967 ft | 498 kts | 126° |
| 2026-04-26 17:30 | 23.92768 | -72.38097 | 36978 ft | 498 kts | 126° |
| 2026-04-26 17:31 | 23.89183 | -72.31612 | 36992 ft | 499 kts | 126° |
| 2026-04-26 17:31 | 23.85592 | -72.25123 | 36985 ft | 500 kts | 127° |
| 2026-04-26 17:32 | 23.82011 | -72.18658 | 36990 ft | 500 kts | 127° |
| 2026-04-26 17:32 | 23.78406 | -72.12156 | 36988 ft | 501 kts | 127° |
| 2026-04-26 17:33 | 23.74789 | -72.05643 | 36985 ft | 502 kts | 127° |
| 2026-04-26 17:34 | 23.69344 | -71.95850 | 36988 ft | 503 kts | 127° |
| 2026-04-26 17:34 | 23.65709 | -71.89322 | 36983 ft | 504 kts | 127° |
| 2026-04-26 17:35 | 23.62067 | -71.82792 | 36980 ft | 504 kts | 127° |
| 2026-04-26 17:35 | 23.58191 | -71.76477 | 36986 ft | 499 kts | 133° |
| 2026-04-26 17:36 | 23.53965 | -71.70488 | 36983 ft | 498 kts | 134° |
| 2026-04-26 17:36 | 23.49747 | -71.64565 | 36984 ft | 498 kts | 134° |
| 2026-04-26 17:37 | 23.45550 | -71.58574 | 36982 ft | 498 kts | 133° |
| 2026-04-26 17:37 | 23.41365 | -71.52552 | 36976 ft | 498 kts | 134° |
| 2026-04-26 17:38 | 23.35103 | -71.43543 | 36984 ft | 497 kts | 134° |
| 2026-04-26 17:38 | 23.30926 | -71.37549 | 36984 ft | 497 kts | 134° |
| 2026-04-26 17:39 | 23.26742 | -71.31554 | 36980 ft | 497 kts | 134° |
| 2026-04-26 17:39 | 23.22588 | -71.25608 | 36948 ft | 497 kts | 134° |
| 2026-04-26 17:40 | 23.19082 | -71.20596 | 36978 ft | 497 kts | 135° |
| 2026-04-26 17:40 | 23.14215 | -71.13647 | 36986 ft | 498 kts | 135° |
| 2026-04-26 17:41 | 23.10015 | -71.07656 | 36982 ft | 499 kts | 135° |
| 2026-04-26 17:41 | 23.05803 | -71.01656 | 36981 ft | 500 kts | 135° |
| 2026-04-26 17:42 | 23.01601 | -70.95675 | 36980 ft | 502 kts | 134° |
| 2026-04-26 17:42 | 22.97363 | -70.89649 | 36979 ft | 503 kts | 135° |
| 2026-04-26 17:43 | 22.93117 | -70.83620 | 36977 ft | 503 kts | 135° |
| 2026-04-26 17:43 | 22.88863 | -70.77592 | 36979 ft | 503 kts | 135° |
| 2026-04-26 17:44 | 22.84600 | -70.71563 | 36945 ft | 503 kts | 136° |
| 2026-04-26 17:44 | 22.80349 | -70.65555 | 36968 ft | 503 kts | 136° |
| 2026-04-26 17:45 | 22.76093 | -70.59545 | 36979 ft | 502 kts | 136° |
| 2026-04-26 17:45 | 22.71838 | -70.53544 | 36965 ft | 502 kts | 136° |
| 2026-04-26 17:46 | 22.67607 | -70.47583 | 36981 ft | 502 kts | 136° |
| 2026-04-26 17:46 | 22.63352 | -70.41595 | 36969 ft | 502 kts | 136° |
| 2026-04-26 17:47 | 22.60503 | -70.37590 | 36978 ft | 502 kts | 136° |
| 2026-04-26 17:47 | 22.54830 | -70.29624 | 36976 ft | 502 kts | 136° |
| 2026-04-26 17:48 | 22.50564 | -70.23640 | 36972 ft | 502 kts | 136° |
| 2026-04-26 17:48 | 22.46304 | -70.17674 | 36964 ft | 501 kts | 136° |
| 2026-04-26 17:49 | 22.42070 | -70.11749 | 36966 ft | 501 kts | 136° |
| 2026-04-26 17:49 | 22.37812 | -70.05797 | 36977 ft | 501 kts | 136° |
| 2026-04-26 17:50 | 22.33549 | -69.99845 | 36973 ft | 501 kts | 136° |
| 2026-04-26 17:50 | 22.29268 | -69.93909 | 36973 ft | 501 kts | 137° |
| 2026-04-26 17:51 | 22.24958 | -69.87995 | 36973 ft | 501 kts | 137° |
| 2026-04-26 17:51 | 22.20661 | -69.82064 | 36966 ft | 501 kts | 137° |
| 2026-04-26 17:52 | 22.16388 | -69.76122 | 36968 ft | 501 kts | 136° |
| 2026-04-26 17:52 | 22.12118 | -69.70184 | 36972 ft | 501 kts | 137° |
| 2026-04-26 17:53 | 22.07849 | -69.64260 | 36972 ft | 500 kts | 137° |
| 2026-04-26 17:54 | 22.01477 | -69.55440 | 36976 ft | 498 kts | 137° |
| 2026-04-26 17:54 | 21.97228 | -69.49567 | 36973 ft | 497 kts | 137° |
| 2026-04-26 17:55 | 21.92977 | -69.43698 | 36966 ft | 497 kts | 137° |
| 2026-04-26 17:55 | 21.88734 | -69.37843 | 36965 ft | 496 kts | 137° |
| 2026-04-26 17:56 | 21.84493 | -69.32000 | 36967 ft | 495 kts | 137° |
| 2026-04-26 17:57 | 21.76024 | -69.20350 | 36967 ft | 494 kts | 137° |
| 2026-04-26 17:57 | 21.71794 | -69.14540 | 36963 ft | 492 kts | 137° |
| 2026-04-26 17:58 | 21.63378 | -69.03000 | 36968 ft | 492 kts | 137° |
| 2026-04-26 17:59 | 21.57037 | -68.94322 | 36968 ft | 492 kts | 137° |
| 2026-04-26 17:59 | 21.52804 | -68.88536 | 36968 ft | 493 kts | 137° |
| 2026-04-26 18:00 | 21.48566 | -68.82749 | 36967 ft | 493 kts | 137° |
| 2026-04-26 18:00 | 21.44327 | -68.76965 | 36975 ft | 493 kts | 137° |
| 2026-04-26 18:01 | 21.40084 | -68.71185 | 36973 ft | 494 kts | 137° |
| 2026-04-26 18:01 | 21.35858 | -68.65432 | 36944 ft | 494 kts | 137° |
| 2026-04-26 18:02 | 21.33011 | -68.61558 | 36966 ft | 494 kts | 137° |
| 2026-04-26 18:02 | 21.27350 | -68.53867 | 36980 ft | 494 kts | 137° |
| 2026-04-26 18:03 | 21.23096 | -68.48094 | 36967 ft | 493 kts | 137° |
| 2026-04-26 18:03 | 21.18843 | -68.42327 | 36964 ft | 493 kts | 137° |
| 2026-04-26 18:04 | 21.14593 | -68.36572 | 36971 ft | 492 kts | 137° |
| 2026-04-26 18:05 | 21.08250 | -68.27992 | 36974 ft | 491 kts | 137° |
| 2026-04-26 18:05 | 21.04009 | -68.22263 | 36977 ft | 491 kts | 137° |
| 2026-04-26 18:06 | 20.99772 | -68.16546 | 36963 ft | 490 kts | 137° |
| 2026-04-26 18:06 | 20.95544 | -68.10845 | 36970 ft | 488 kts | 137° |
| 2026-04-26 18:07 | 20.91323 | -68.05161 | 36968 ft | 488 kts | 137° |
| 2026-04-26 18:07 | 20.87100 | -67.99477 | 36971 ft | 487 kts | 137° |
| 2026-04-26 18:08 | 20.82908 | -67.93784 | 36982 ft | 488 kts | 136° |
| 2026-04-26 18:08 | 20.79447 | -67.89017 | 36972 ft | 488 kts | 136° |
| 2026-04-26 18:09 | 20.74611 | -67.82359 | 36979 ft | 488 kts | 136° |
| 2026-04-26 18:09 | 20.71117 | -67.77564 | 36975 ft | 488 kts | 136° |
| 2026-04-26 18:10 | 20.66974 | -67.71888 | 36970 ft | 488 kts | 136° |
| 2026-04-26 18:10 | 20.62794 | -67.66171 | 36976 ft | 489 kts | 136° |
| 2026-04-26 18:11 | 20.58610 | -67.60450 | 36967 ft | 488 kts | 136° |
| 2026-04-26 18:11 | 20.54426 | -67.54736 | 36967 ft | 489 kts | 137° |
| 2026-04-26 18:12 | 20.50240 | -67.49025 | 36966 ft | 488 kts | 137° |
| 2026-04-26 18:12 | 20.46080 | -67.43354 | 36973 ft | 488 kts | 137° |
| 2026-04-26 18:13 | 20.41894 | -67.37651 | 36980 ft | 488 kts | 137° |
| 2026-04-26 18:13 | 20.37705 | -67.31954 | 36977 ft | 488 kts | 137° |
| 2026-04-26 18:14 | 20.33515 | -67.26260 | 36978 ft | 488 kts | 137° |
| 2026-04-26 18:14 | 20.29329 | -67.20573 | 36970 ft | 488 kts | 137° |
| 2026-04-26 18:15 | 20.25168 | -67.14927 | 36977 ft | 487 kts | 137° |
| 2026-04-26 18:15 | 20.20981 | -67.09249 | 36954 ft | 487 kts | 136° |
| 2026-04-26 18:16 | 20.16801 | -67.03586 | 36971 ft | 486 kts | 136° |
| 2026-04-26 18:16 | 20.12583 | -66.97885 | 36197 ft | 493 kts | 136° |
| 2026-04-26 18:16 | 20.10470 | -66.95026 | 35634 ft | 492 kts | 136° |
| 2026-04-26 18:17 | 20.08352 | -66.92161 | 35001 ft | 493 kts | 136° |
| 2026-04-26 18:17 | 20.06224 | -66.89284 | 34330 ft | 496 kts | 135° |
| 2026-04-26 18:17 | 20.04088 | -66.86399 | 33621 ft | 498 kts | 135° |
| 2026-04-26 18:17 | 20.01961 | -66.83540 | 32899 ft | 498 kts | 136° |
| 2026-04-26 18:18 | 19.99595 | -66.80899 | 32188 ft | 490 kts | 146° |
| 2026-04-26 18:18 | 19.96935 | -66.78680 | 31481 ft | 483 kts | 153° |
| 2026-04-26 18:18 | 19.94041 | -66.76918 | 30743 ft | 477 kts | 161° |
| 2026-04-26 18:18 | 19.91047 | -66.75375 | 29952 ft | 480 kts | 161° |
| 2026-04-26 18:19 | 19.88026 | -66.73830 | 29046 ft | 483 kts | 160° |
| 2026-04-26 18:19 | 19.85001 | -66.72275 | 28174 ft | 484 kts | 160° |
| 2026-04-26 18:19 | 19.81975 | -66.70704 | 27291 ft | 486 kts | 159° |
| 2026-04-26 18:19 | 19.78934 | -66.69113 | 26388 ft | 488 kts | 159° |
| 2026-04-26 18:20 | 19.75902 | -66.67516 | 25751 ft | 483 kts | 159° |
| 2026-04-26 18:20 | 19.72938 | -66.65950 | 25085 ft | 480 kts | 159° |
| 2026-04-26 18:20 | 19.69929 | -66.64360 | 24489 ft | 476 kts | 159° |
| 2026-04-26 18:20 | 19.67983 | -66.63332 | 24326 ft | 467 kts | 159° |
| 2026-04-26 18:21 | 19.64218 | -66.61340 | 24157 ft | 447 kts | 159° |
| 2026-04-26 18:21 | 19.61474 | -66.59891 | 24027 ft | 433 kts | 159° |
| 2026-04-26 18:21 | 19.58826 | -66.58495 | 23996 ft | 418 kts | 159° |
| 2026-04-26 18:21 | 19.56268 | -66.57148 | 23979 ft | 404 kts | 159° |
| 2026-04-26 18:22 | 19.53779 | -66.55841 | 23657 ft | 399 kts | 159° |
| 2026-04-26 18:22 | 19.51273 | -66.54532 | 22804 ft | 406 kts | 159° |
| 2026-04-26 18:22 | 19.48677 | -66.53182 | 21471 ft | 425 kts | 158° |
| 2026-04-26 18:22 | 19.45976 | -66.51775 | 20290 ft | 440 kts | 158° |
| 2026-04-26 18:23 | 19.43218 | -66.50330 | 19515 ft | 442 kts | 157° |
| 2026-04-26 18:23 | 19.40480 | -66.48889 | 19003 ft | 438 kts | 157° |
| 2026-04-26 18:23 | 19.37768 | -66.47461 | 18525 ft | 433 kts | 157° |
| 2026-04-26 18:23 | 19.35117 | -66.46067 | 17952 ft | 430 kts | 157° |
| 2026-04-26 18:24 | 19.32451 | -66.44668 | 17364 ft | 426 kts | 157° |
| 2026-04-26 18:24 | 19.29807 | -66.43282 | 16844 ft | 421 kts | 157° |
| 2026-04-26 18:24 | 19.27196 | -66.41914 | 16318 ft | 417 kts | 157° |
| 2026-04-26 18:24 | 19.24611 | -66.40561 | 15793 ft | 413 kts | 157° |
| 2026-04-26 18:25 | 19.22047 | -66.39220 | 15269 ft | 409 kts | 157° |
| 2026-04-26 18:25 | 19.19504 | -66.37889 | 14760 ft | 405 kts | 157° |
| 2026-04-26 18:25 | 19.16991 | -66.36575 | 14268 ft | 402 kts | 156° |
| 2026-04-26 18:25 | 19.14497 | -66.35271 | 13776 ft | 398 kts | 156° |
| 2026-04-26 18:26 | 19.12026 | -66.33980 | 13234 ft | 395 kts | 156° |
| 2026-04-26 18:26 | 19.09576 | -66.32727 | 12917 ft | 385 kts | 158° |
| 2026-04-26 18:26 | 19.07182 | -66.31574 | 12823 ft | 371 kts | 159° |
| 2026-04-26 18:26 | 19.04893 | -66.30496 | 12732 ft | 358 kts | 159° |
| 2026-04-26 18:27 | 19.02664 | -66.29449 | 12649 ft | 346 kts | 159° |
| 2026-04-26 18:27 | 19.00476 | -66.28419 | 12568 ft | 334 kts | 159° |
| 2026-04-26 18:27 | 18.98411 | -66.27442 | 12491 ft | 324 kts | 159° |
| 2026-04-26 18:27 | 18.96390 | -66.26483 | 12419 ft | 313 kts | 159° |
| 2026-04-26 18:28 | 18.94432 | -66.25554 | 12340 ft | 303 kts | 159° |
| 2026-04-26 18:28 | 18.92541 | -66.24654 | 12261 ft | 294 kts | 159° |
| 2026-04-26 18:28 | 18.90694 | -66.23777 | 12078 ft | 289 kts | 159° |
| 2026-04-26 18:28 | 18.88868 | -66.22910 | 11790 ft | 288 kts | 159° |
| 2026-04-26 18:29 | 18.87062 | -66.22052 | 11503 ft | 288 kts | 159° |
| 2026-04-26 18:29 | 18.85244 | -66.21189 | 11217 ft | 286 kts | 158° |
| 2026-04-26 18:29 | 18.83430 | -66.20326 | 10948 ft | 285 kts | 158° |
| 2026-04-26 18:29 | 18.81624 | -66.19467 | 10693 ft | 284 kts | 158° |
| 2026-04-26 18:30 | 18.79820 | -66.18610 | 10420 ft | 283 kts | 158° |
| 2026-04-26 18:30 | 18.78026 | -66.17758 | 10162 ft | 282 kts | 158° |
| 2026-04-26 18:30 | 18.76239 | -66.16909 | 9915 ft | 281 kts | 158° |
| 2026-04-26 18:30 | 18.74380 | -66.16381 | 9574 ft | 277 kts | 182° |
| 2026-04-26 18:31 | 18.72481 | -66.16556 | 9367 ft | 272 kts | 188° |
| 2026-04-26 18:31 | 18.70634 | -66.16785 | 9089 ft | 271 kts | 188° |
| 2026-04-26 18:31 | 18.68766 | -66.17011 | 8815 ft | 270 kts | 188° |
| 2026-04-26 18:31 | 18.66900 | -66.17234 | 8552 ft | 269 kts | 188° |
| 2026-04-26 18:32 | 18.65046 | -66.17450 | 8310 ft | 267 kts | 187° |
| 2026-04-26 18:32 | 18.63203 | -66.17664 | 8050 ft | 266 kts | 187° |
| 2026-04-26 18:32 | 18.61375 | -66.17875 | 7798 ft | 264 kts | 187° |
| 2026-04-26 18:32 | 18.59552 | -66.18086 | 7540 ft | 263 kts | 187° |
| 2026-04-26 18:33 | 18.57736 | -66.18295 | 7257 ft | 262 kts | 187° |
| 2026-04-26 18:33 | 18.55928 | -66.18504 | 7041 ft | 261 kts | 187° |
| 2026-04-26 18:33 | 18.54124 | -66.18712 | 6756 ft | 260 kts | 187° |
| 2026-04-26 18:33 | 18.52347 | -66.18917 | 6463 ft | 262 kts | 187° |
| 2026-04-26 18:34 | 18.50549 | -66.19124 | 6304 ft | 256 kts | 187° |
| 2026-04-26 18:34 | 18.48803 | -66.19324 | 6201 ft | 250 kts | 186° |
| 2026-04-26 18:34 | 18.47087 | -66.19522 | 6197 ft | 245 kts | 187° |
| 2026-04-26 18:34 | 18.45397 | -66.19585 | 6049 ft | 245 kts | 169° |
| 2026-04-26 18:35 | 18.43930 | -66.18712 | 5872 ft | 250 kts | 131° |
| 2026-04-26 18:35 | 18.43200 | -66.17027 | 5405 ft | 264 kts | 97° |
| 2026-04-26 18:35 | 18.43301 | -66.15060 | 4831 ft | 275 kts | 87° |
| 2026-04-26 18:35 | 18.43374 | -66.13034 | 4357 ft | 277 kts | 91° |
| 2026-04-26 18:36 | 18.43374 | -66.11048 | 4054 ft | 270 kts | 92° |
| 2026-04-26 18:36 | 18.43398 | -66.09112 | 3859 ft | 260 kts | 85° |
| 2026-04-26 18:36 | 18.44011 | -66.07367 | 3651 ft | 253 kts | 54° |
| 2026-04-26 18:36 | 18.45335 | -66.06226 | 3494 ft | 246 kts | 23° |
| 2026-04-26 18:37 | 18.46980 | -66.05956 | 3306 ft | 239 kts | 352° |
| 2026-04-26 18:37 | 18.48504 | -66.06507 | 3091 ft | 230 kts | 321° |
| 2026-04-26 18:37 | 18.49500 | -66.07774 | 2955 ft | 224 kts | 295° |
| 2026-04-26 18:37 | 18.49917 | -66.09331 | 2770 ft | 221 kts | 274° |
| 2026-04-26 18:38 | 18.50088 | -66.10939 | 2640 ft | 223 kts | 274° |
| 2026-04-26 18:38 | 18.50250 | -66.12556 | 2471 ft | 225 kts | 274° |
| 2026-04-26 18:38 | 18.50407 | -66.14204 | 2318 ft | 229 kts | 274° |
| 2026-04-26 18:38 | 18.50549 | -66.15867 | 2157 ft | 227 kts | 273° |
| 2026-04-26 18:39 | 18.50682 | -66.17517 | 2033 ft | 225 kts | 269° |
| 2026-04-26 18:39 | 18.50349 | -66.19080 | 1828 ft | 218 kts | 236° |
| 2026-04-26 18:39 | 18.49260 | -66.20127 | 1699 ft | 214 kts | 202° |
| 2026-04-26 18:39 | 18.47808 | -66.20321 | 1514 ft | 211 kts | 167° |
| 2026-04-26 18:40 | 18.46575 | -66.19591 | 1514 ft | 204 kts | 134° |
| 2026-04-26 18:40 | 18.45701 | -66.18456 | 1540 ft | 195 kts | 128° |
| 2026-04-26 18:40 | 18.44887 | -66.17316 | 1526 ft | 195 kts | 128° |
| 2026-04-26 18:40 | 18.44094 | -66.16175 | 1472 ft | 189 kts | 127° |
| 2026-04-26 18:41 | 18.43441 | -66.15025 | 1475 ft | 186 kts | 107° |
| 2026-04-26 18:41 | 18.43433 | -66.13662 | 1476 ft | 190 kts | 85° |
| 2026-04-26 18:41 | 18.43410 | -66.12285 | 1505 ft | 188 kts | 97° |
| 2026-04-26 18:41 | 18.43367 | -66.10910 | 1513 ft | 188 kts | 92° |
| 2026-04-26 18:42 | 18.43367 | -66.09535 | 1452 ft | 188 kts | 90° |
| 2026-04-26 18:42 | 18.43367 | -66.08164 | 1209 ft | 181 kts | 91° |
| 2026-04-26 18:42 | 18.43365 | -66.06881 | 1011 ft | 167 kts | 92° |
| 2026-04-26 18:42 | 18.43361 | -66.05700 | 775 ft | 155 kts | 88° |
| 2026-04-26 18:43 | 18.43360 | -66.04629 | 597 ft | 138 kts | 92° |
| 2026-04-26 18:43 | 18.43357 | -66.03639 | 447 ft | 138 kts | 90° |
| 2026-04-26 18:43 | 18.43357 | -66.02572 | 240 ft | 150 kts | 89° |
| 2026-04-26 18:43 | 18.43365 | -66.01453 | 37 ft | 154 kts | 95° |
| 2026-04-26 18:44 | 18.43360 | -66.00360 | -53 ft | 138 kts | 91° |
| 2026-04-26 18:44 | 18.43353 | -65.99641 | -31 ft | 41 kts | 85° |
| 2026-04-26 18:44 | 18.43437 | -65.99552 | -38 ft | 0 kts | 3° |
| 2026-04-26 18:44 | 18.43467 | -65.99550 | -48 ft | 8 kts | 3° |
| 2026-04-26 18:45 | 18.43520 | -65.99549 | -27 ft | 8 kts | 0° |
| 2026-04-26 18:45 | 18.43559 | -65.99577 | -28 ft | 7 kts | 290° |
| 2026-04-26 18:45 | 18.43563 | -65.99636 | -25 ft | 9 kts | 270° |
| 2026-04-26 18:45 | 18.43561 | -65.99720 | -25 ft | 14 kts | 269° |
| 2026-04-26 18:46 | 18.43561 | -65.99846 | -25 ft | 17 kts | 271° |
| 2026-04-26 18:46 | 18.43562 | -65.99970 | -25 ft | 17 kts | 271° |
| 2026-04-26 18:46 | 18.43564 | -66.00039 | -27 ft | 5 kts | 288° |
| 2026-04-26 18:46 | 18.43591 | -66.00060 | -28 ft | 5 kts | 322° |
| 2026-04-26 18:47 | 18.43617 | -66.00083 | -32 ft | 4 kts | 319° |
| 2026-04-26 18:47 | 18.43630 | -66.00095 | -36 ft | 1 kts | 319° |
| 2026-04-26 18:47 | 18.43631 | -66.00096 | -35 ft | 0 kts | 319° |